createdAt,value
2018-03-27T00:01:07.522Z,4.77
2018-03-27T00:03:35.116Z,9.43
2018-03-27T00:06:02.701Z,9.50
2018-03-27T00:08:31.080Z,9.60
2018-03-27T00:10:59.428Z,8.43
2018-03-27T00:13:27.061Z,10.90
2018-03-27T00:15:54.647Z,10.90
2018-03-27T00:18:22.268Z,10.40
2018-03-27T00:20:49.852Z,9.40
2018-03-27T00:23:17.437Z,7.70
2018-03-27T00:25:45.819Z,9.37
2018-03-27T00:28:25.100Z,11.73
2018-03-27T00:31:04.564Z,8.70
2018-03-27T00:33:44.000Z,8.30
2018-03-27T00:36:23.551Z,5.80
2018-03-27T00:39:03.057Z,6.87
2018-03-27T00:44:41.356Z,8.00
2018-03-27T00:47:09.743Z,9.10
2018-03-27T00:49:38.097Z,12.80
2018-03-27T00:52:05.676Z,7.10
2018-03-27T00:54:34.052Z,7.50
2018-03-27T00:57:02.444Z,8.27
2018-03-27T00:59:30.802Z,7.70
2018-03-27T01:01:59.157Z,9.17
2018-03-27T01:04:26.791Z,10.17
2018-03-27T01:06:54.384Z,9.70
2018-03-27T01:09:21.968Z,9.10
2018-03-27T01:11:50.363Z,10.60
2018-03-27T01:14:18.712Z,10.93
2018-03-27T01:16:46.305Z,12.63
2018-03-27T01:19:13.938Z,10.27
2018-03-27T01:21:41.547Z,10.43
2018-03-27T01:24:09.132Z,11.00
2018-03-27T01:26:36.740Z,9.33
2018-03-27T01:29:05.103Z,10.97
2018-03-27T01:31:33.509Z,11.87
2018-03-27T01:34:01.099Z,9.53
2018-03-27T01:36:28.684Z,10.47
2018-03-27T01:38:57.096Z,6.70
2018-03-27T01:41:25.441Z,9.47
2018-03-27T01:43:53.058Z,12.50
2018-03-27T01:46:20.640Z,9.57
2018-03-27T01:48:48.255Z,14.30
2018-03-27T01:51:16.613Z,15.70
2018-03-27T01:53:44.228Z,9.53
2018-03-27T01:56:11.812Z,9.40
2018-03-27T01:58:39.425Z,11.00
2018-03-27T02:01:07.794Z,12.47
2018-03-27T02:03:36.172Z,10.77
2018-03-27T02:06:04.540Z,10.90
2018-03-27T02:08:32.924Z,10.07
2018-03-27T02:11:07.134Z,9.40
2018-03-27T02:13:40.382Z,9.87
2018-03-27T02:16:13.600Z,13.20
2018-03-27T02:18:47.013Z,9.13
2018-03-27T02:21:20.307Z,8.70
2018-03-27T02:23:47.899Z,10.93
2018-03-27T02:26:15.514Z,10.67
2018-03-27T02:28:43.109Z,12.50
2018-03-27T02:31:11.494Z,13.10
2018-03-27T02:33:39.092Z,9.90
2018-03-27T02:36:06.711Z,11.63
2018-03-27T02:38:35.065Z,12.20
2018-03-27T02:41:02.698Z,12.97
2018-03-27T02:43:30.287Z,11.67
2018-03-27T02:45:57.881Z,16.63
2018-03-27T02:48:25.535Z,10.30
2018-03-27T02:50:53.117Z,13.53
2018-03-27T02:53:20.715Z,12.93
2018-03-27T02:55:48.328Z,13.03
2018-03-27T02:58:15.916Z,12.70
2018-03-27T03:00:43.534Z,12.77
2018-03-27T03:03:11.904Z,12.30
2018-03-27T03:05:40.276Z,13.00
2018-03-27T03:08:08.628Z,9.20
2018-03-27T03:10:36.244Z,12.60
2018-03-27T03:13:03.832Z,11.87
2018-03-27T03:15:31.443Z,12.37
2018-03-27T03:17:59.802Z,12.83
2018-03-27T03:20:27.416Z,9.93
2018-03-27T03:22:55.016Z,12.80
2018-03-27T03:25:24.135Z,16.40
2018-03-27T03:27:52.498Z,14.53
2018-03-27T03:30:20.118Z,10.50
2018-03-27T03:32:47.720Z,10.50
2018-03-27T03:35:15.352Z,14.43
2018-03-27T03:37:42.941Z,11.13
2018-03-27T03:40:10.552Z,11.50
2018-03-27T03:42:38.146Z,10.87
2018-03-27T03:45:05.770Z,12.10
2018-03-27T03:47:33.360Z,12.77
2018-03-27T03:50:00.968Z,10.80
2018-03-27T03:52:29.330Z,11.10
2018-03-27T03:54:56.948Z,11.40
2018-03-27T03:57:24.535Z,11.00
2018-03-27T03:59:53.662Z,12.93
2018-03-27T04:02:22.031Z,9.57
2018-03-27T04:04:50.391Z,12.37
2018-03-27T04:07:18.005Z,14.33
2018-03-27T04:09:45.588Z,9.10
2018-03-27T04:12:13.212Z,12.53
2018-03-27T04:14:40.812Z,12.70
2018-03-27T04:17:08.427Z,13.53
2018-03-27T04:19:36.011Z,15.73
2018-03-27T04:22:03.627Z,15.53
2018-03-27T04:24:31.221Z,11.07
2018-03-27T04:26:58.851Z,13.53
2018-03-27T04:29:27.216Z,14.60
2018-03-27T04:31:54.838Z,15.60
2018-03-27T04:34:22.428Z,14.77
2018-03-27T04:36:50.057Z,14.53
2018-03-27T04:39:17.648Z,13.50
2018-03-27T04:41:45.280Z,19.17
2018-03-27T04:44:12.876Z,17.40
2018-03-27T04:46:40.499Z,15.30
2018-03-27T04:49:08.106Z,11.83
2018-03-27T04:51:35.729Z,15.40
2018-03-27T04:54:03.390Z,14.80
2018-03-27T04:56:31.013Z,18.40
2018-03-27T04:58:59.367Z,16.67
2018-03-27T05:01:26.947Z,16.03
2018-03-27T05:03:59.465Z,13.57
2018-03-27T05:06:27.881Z,16.37
2018-03-27T05:08:55.505Z,16.80
2018-03-27T05:11:23.095Z,22.50
2018-03-27T05:13:50.727Z,19.83
2018-03-27T05:16:18.320Z,18.27
2018-03-27T05:18:45.932Z,12.10
2018-03-27T05:21:13.537Z,12.30
2018-03-27T05:23:41.152Z,15.13
2018-03-27T05:26:08.738Z,19.73
2018-03-27T05:28:36.358Z,19.03
2018-03-27T05:31:03.957Z,18.77
2018-03-27T05:33:31.572Z,18.47
2018-03-27T05:35:59.925Z,17.23
2018-03-27T05:38:27.596Z,16.90
2018-03-27T05:40:55.196Z,20.07
2018-03-27T05:43:22.816Z,18.13
2018-03-27T05:45:50.490Z,20.63
2018-03-27T05:48:18.881Z,11.63
2018-03-27T05:50:46.482Z,16.60
2018-03-27T05:53:14.108Z,15.00
2018-03-27T05:55:41.702Z,17.57
2018-03-27T05:58:09.324Z,15.67
2018-03-27T06:00:37.688Z,17.23
2018-03-27T06:03:06.035Z,13.70
2018-03-27T06:05:33.648Z,14.77
2018-03-27T06:08:01.250Z,17.87
2018-03-27T06:10:28.870Z,15.23
2018-03-27T06:12:56.464Z,21.03
2018-03-27T06:15:24.087Z,19.63
2018-03-27T06:17:51.688Z,17.40
2018-03-27T06:20:19.310Z,14.33
2018-03-27T06:22:46.897Z,17.57
2018-03-27T06:25:14.512Z,13.20
2018-03-27T06:27:42.881Z,19.60
2018-03-27T06:30:11.281Z,21.77
2018-03-27T06:32:38.872Z,25.30
2018-03-27T06:35:06.491Z,24.27
2018-03-27T06:37:34.848Z,27.57
2018-03-27T06:40:03.972Z,23.90
2018-03-27T06:42:32.329Z,21.60
2018-03-27T06:44:59.948Z,20.00
2018-03-27T06:47:27.539Z,25.93
2018-03-27T06:49:55.163Z,19.80
2018-03-27T06:52:22.762Z,22.57
2018-03-27T06:54:50.401Z,16.97
2018-03-27T06:57:17.998Z,30.00
2018-03-27T06:59:45.615Z,24.43
2018-03-27T07:02:13.251Z,26.60
2018-03-27T07:04:40.864Z,34.20
2018-03-27T07:07:08.470Z,31.83
2018-03-27T07:09:36.105Z,30.07
2018-03-27T07:12:03.738Z,30.13
2018-03-27T07:14:31.355Z,20.90
2018-03-27T07:16:58.968Z,23.30
2018-03-27T07:19:26.568Z,33.10
2018-03-27T07:21:55.005Z,26.20
2018-03-27T07:24:22.604Z,27.93
2018-03-27T07:26:50.998Z,17.20
2018-03-27T07:29:18.595Z,32.53
2018-03-27T07:31:46.227Z,63.73
2018-03-27T07:34:13.838Z,28.57
2018-03-27T07:36:41.571Z,27.00
2018-03-27T07:39:09.208Z,20.50
2018-03-27T07:41:36.839Z,28.23
2018-03-27T07:44:05.245Z,29.67
2018-03-27T07:46:32.836Z,24.07
2018-03-27T07:49:00.461Z,26.80
2018-03-27T07:51:28.056Z,25.93
2018-03-27T07:53:55.697Z,26.03
2018-03-27T07:56:23.288Z,28.93
2018-03-27T07:58:50.884Z,31.70
2018-03-27T08:01:19.300Z,29.73
2018-03-27T08:03:46.905Z,34.50
2018-03-27T08:06:14.512Z,28.20
2018-03-27T08:08:42.136Z,26.27
2018-03-27T08:11:09.779Z,27.10
2018-03-27T08:13:37.344Z,32.47
2018-03-27T08:16:04.970Z,29.90
2018-03-27T08:18:32.634Z,23.23
2018-03-27T08:21:00.992Z,30.80
2018-03-27T08:23:28.603Z,22.63
2018-03-27T08:25:56.196Z,23.27
2018-03-27T08:28:24.587Z,21.83
2018-03-27T08:30:52.944Z,23.47
2018-03-27T08:33:21.341Z,28.20
2018-03-27T08:35:49.710Z,15.20
2018-03-27T08:38:18.105Z,17.10
2018-03-27T08:40:45.707Z,20.77
2018-03-27T08:43:13.341Z,16.03
2018-03-27T08:45:40.936Z,25.83
2018-03-27T08:48:08.568Z,21.43
2018-03-27T08:50:36.173Z,22.83
2018-03-27T08:53:03.793Z,32.40
2018-03-27T08:55:31.425Z,26.00
2018-03-27T08:57:59.816Z,24.10
2018-03-27T09:00:27.412Z,23.17
2018-03-27T09:02:55.043Z,20.53
2018-03-27T09:05:22.682Z,34.80
2018-03-27T09:07:51.044Z,29.73
2018-03-27T09:10:19.440Z,29.00
2018-03-27T09:12:47.800Z,32.13
2018-03-27T09:15:15.452Z,22.20
2018-03-27T09:17:43.064Z,28.97
2018-03-27T09:20:10.663Z,28.00
2018-03-27T09:22:38.283Z,28.77
2018-03-27T09:25:05.896Z,29.73
2018-03-27T09:27:33.524Z,21.63
2018-03-27T09:30:01.111Z,16.50
2018-03-27T09:32:28.744Z,17.47
2018-03-27T09:34:56.350Z,22.53
2018-03-27T09:37:24.744Z,22.67
2018-03-27T09:39:53.166Z,27.57
2018-03-27T09:42:20.795Z,29.20
2018-03-27T09:44:48.391Z,25.80
2018-03-27T09:47:16.017Z,22.40
2018-03-27T09:49:43.709Z,26.43
2018-03-27T09:52:11.328Z,23.03
2018-03-27T09:54:39.750Z,15.67
2018-03-27T09:57:07.371Z,16.00
2018-03-27T09:59:35.736Z,12.67
2018-03-27T10:02:04.096Z,9.27
2018-03-27T10:04:31.720Z,16.47
2018-03-27T10:06:59.310Z,8.40
2018-03-27T10:09:26.903Z,10.90
2018-03-27T10:11:55.288Z,13.33
2018-03-27T10:14:23.731Z,11.83
2018-03-27T10:16:51.344Z,9.43
2018-03-27T10:19:18.945Z,10.77
2018-03-27T10:21:46.624Z,9.90
2018-03-27T10:24:14.217Z,8.57
2018-03-27T10:26:41.846Z,6.10
2018-03-27T10:29:09.434Z,9.47
2018-03-27T10:31:37.072Z,5.90
2018-03-27T10:34:04.661Z,10.80
2018-03-27T10:36:32.276Z,8.50
2018-03-27T10:38:59.867Z,7.60
2018-03-27T10:41:28.270Z,10.03
2018-03-27T10:43:55.867Z,5.10
2018-03-27T10:46:23.492Z,10.57
2018-03-27T10:48:51.087Z,6.50
2018-03-27T10:51:18.701Z,5.27
2018-03-27T10:53:47.121Z,5.10
2018-03-27T10:56:14.735Z,6.07
2018-03-27T10:58:43.093Z,6.83
2018-03-27T11:01:10.700Z,5.10
2018-03-27T11:03:38.402Z,4.20
2018-03-27T11:06:06.036Z,6.27
2018-03-27T11:08:33.635Z,4.57
2018-03-27T11:11:02.730Z,7.03
2018-03-27T11:13:30.395Z,3.60
2018-03-27T11:15:57.984Z,2.80
2018-03-27T11:18:25.600Z,3.60
2018-03-27T11:20:53.192Z,3.93
2018-03-27T11:23:21.612Z,5.70
2018-03-27T11:25:49.199Z,5.20
2018-03-27T11:28:16.815Z,3.20
2018-03-27T11:30:44.410Z,2.93
2018-03-27T11:33:12.033Z,2.67
2018-03-27T11:35:39.648Z,6.63
2018-03-27T11:38:08.744Z,2.37
2018-03-27T11:40:36.356Z,2.67
2018-03-27T11:43:03.960Z,3.40
2018-03-27T11:45:31.576Z,7.20
2018-03-27T11:47:59.160Z,5.97
2018-03-27T11:50:26.772Z,5.33
2018-03-27T11:52:55.133Z,3.63
2018-03-27T11:55:23.512Z,8.43
2018-03-27T11:57:51.100Z,4.47
2018-03-27T12:00:19.499Z,3.30
2018-03-27T12:02:47.089Z,4.50
2018-03-27T12:05:14.711Z,5.30
2018-03-27T12:07:42.304Z,5.23
2018-03-27T12:10:09.934Z,3.97
2018-03-27T12:12:37.528Z,2.60
2018-03-27T12:15:05.143Z,7.03
2018-03-27T12:17:32.847Z,5.17
2018-03-27T12:20:00.436Z,4.10
2018-03-27T12:22:28.105Z,3.10
2018-03-27T12:24:55.710Z,3.77
2018-03-27T12:27:23.298Z,3.93
2018-03-27T12:29:50.913Z,4.13
2018-03-27T12:32:18.506Z,4.00
2018-03-27T12:34:46.137Z,6.97
2018-03-27T12:37:13.769Z,5.70
2018-03-27T12:39:41.393Z,5.57
2018-03-27T12:42:08.982Z,5.43
2018-03-27T12:44:37.384Z,7.50
2018-03-27T12:47:05.736Z,5.53
2018-03-27T12:49:34.856Z,5.17
2018-03-27T12:52:03.233Z,2.90
2018-03-27T12:54:31.591Z,3.93
2018-03-27T12:56:59.223Z,5.83
2018-03-27T12:59:26.811Z,6.13
2018-03-27T13:01:55.198Z,4.43
2018-03-27T13:04:23.134Z,3.77
2018-03-27T13:06:51.115Z,3.30
2018-03-27T13:09:19.168Z,3.97
2018-03-27T13:11:46.941Z,1.87
2018-03-27T13:14:14.544Z,1.93
2018-03-27T13:16:42.936Z,1.97
2018-03-27T13:19:11.296Z,1.93
2018-03-27T13:21:39.936Z,1.50
2018-03-27T13:24:07.818Z,2.93
2018-03-27T13:26:35.560Z,2.83
2018-03-27T13:29:03.449Z,2.30
2018-03-27T13:31:31.324Z,2.60
2018-03-27T13:33:59.286Z,1.93
2018-03-27T13:36:27.112Z,3.37
2018-03-27T13:38:55.095Z,3.90
2018-03-27T13:41:25.662Z,2.20
2018-03-27T13:43:53.628Z,3.90
2018-03-27T13:46:21.228Z,5.87
2018-03-27T13:48:49.653Z,7.07
2018-03-27T13:51:17.960Z,3.13
2018-03-27T13:53:45.580Z,2.63
2018-03-27T13:56:13.295Z,4.27
2018-03-27T13:58:41.680Z,3.50
2018-03-27T14:01:10.037Z,3.97
2018-03-27T14:03:37.771Z,2.60
2018-03-27T14:06:05.479Z,4.20
2018-03-27T14:08:33.961Z,3.40
2018-03-27T14:11:02.419Z,3.13
2018-03-27T14:13:30.886Z,2.63
2018-03-27T14:15:58.751Z,3.10
2018-03-27T14:18:26.534Z,2.63
2018-03-27T14:20:54.201Z,3.60
2018-03-27T14:23:23.483Z,3.43
2018-03-27T14:25:51.146Z,2.00
2018-03-27T14:28:18.931Z,3.17
2018-03-27T14:30:46.783Z,2.73
2018-03-27T14:33:14.425Z,1.50
2018-03-27T14:35:42.044Z,4.90
2018-03-27T14:38:09.760Z,1.57
2018-03-27T14:40:37.359Z,4.67
2018-03-27T14:43:05.763Z,3.43
2018-03-27T14:45:33.355Z,1.97
2018-03-27T14:48:00.982Z,2.50
2018-03-27T14:50:28.584Z,1.90
2018-03-27T14:52:56.196Z,1.80
2018-03-27T14:55:23.780Z,2.50
2018-03-27T14:57:51.392Z,2.77
2018-03-27T15:00:19.744Z,3.07
2018-03-27T15:02:47.366Z,3.50
2018-03-27T15:05:14.951Z,2.43
2018-03-27T15:07:42.571Z,2.40
2018-03-27T15:10:10.229Z,2.47
2018-03-27T15:12:38.606Z,3.93
2018-03-27T15:15:06.224Z,2.20
2018-03-27T15:17:33.846Z,2.50
2018-03-27T15:20:01.451Z,1.70
2018-03-27T15:22:29.088Z,3.23
2018-03-27T15:24:56.687Z,4.47
2018-03-27T15:27:24.304Z,4.60
2018-03-27T15:29:51.891Z,2.57
2018-03-27T15:32:19.500Z,4.20
2018-03-27T15:34:47.088Z,2.53
2018-03-27T15:37:14.704Z,2.20
2018-03-27T15:39:43.119Z,2.20
2018-03-27T15:42:10.741Z,3.03
2018-03-27T15:44:39.096Z,2.20
2018-03-27T15:47:06.763Z,4.17
2018-03-27T15:49:34.356Z,3.30
2018-03-27T15:52:01.948Z,3.63
2018-03-27T15:54:29.576Z,3.20
2018-03-27T15:56:57.931Z,3.23
2018-03-27T15:59:25.553Z,3.07
2018-03-27T16:01:53.144Z,6.80
2018-03-27T16:04:20.764Z,2.47
2018-03-27T16:06:48.387Z,4.97
2018-03-27T16:09:16.772Z,4.37
2018-03-27T16:11:47.066Z,6.60
2018-03-27T16:14:16.172Z,6.33
2018-03-27T16:16:44.020Z,5.33
2018-03-27T16:19:12.717Z,5.87
2018-03-27T16:21:40.649Z,6.40
2018-03-27T16:24:08.560Z,4.80
2018-03-27T16:26:37.023Z,6.00
2018-03-27T16:29:04.993Z,5.80
2018-03-27T16:31:32.859Z,4.00
2018-03-27T16:34:00.725Z,5.17
2018-03-27T16:36:31.347Z,4.57
2018-03-27T16:39:00.864Z,7.27
2018-03-27T16:41:29.430Z,4.00
2018-03-27T16:43:59.995Z,4.00
2018-03-27T16:46:28.642Z,6.10
2018-03-27T16:48:57.968Z,4.97
2018-03-27T16:51:27.558Z,7.50
2018-03-27T16:53:58.528Z,4.23
2018-03-27T16:56:28.258Z,4.90
2018-03-27T16:58:58.080Z,3.93
2018-03-27T17:01:25.892Z,4.60
2018-03-27T17:03:53.782Z,7.77
2018-03-27T17:06:22.456Z,4.43
2018-03-27T17:08:50.294Z,6.30
2018-03-27T17:11:18.283Z,6.50
2018-03-27T17:13:47.804Z,5.47
2018-03-27T17:16:15.869Z,8.53
2018-03-27T17:18:43.736Z,6.00
2018-03-27T17:21:11.586Z,5.37
2018-03-27T17:23:40.570Z,6.00
2018-03-27T17:26:08.558Z,6.37
2018-03-27T17:28:36.429Z,4.53
2018-03-27T17:31:04.298Z,8.47
2018-03-27T17:33:32.120Z,6.30
2018-03-27T17:35:59.929Z,5.87
2018-03-27T17:38:27.789Z,7.53
2018-03-27T17:40:55.657Z,5.50
2018-03-27T17:43:23.523Z,6.33
2018-03-27T17:45:51.261Z,9.47
2018-03-27T17:48:19.161Z,9.60
2018-03-27T17:50:47.022Z,10.80
2018-03-27T17:53:14.888Z,7.47
2018-03-27T17:55:42.758Z,10.77
2018-03-27T17:58:10.620Z,8.40
2018-03-27T18:00:38.381Z,7.10
2018-03-27T18:03:06.263Z,6.90
2018-03-27T18:05:34.841Z,9.07
2018-03-27T18:08:02.714Z,9.53
2018-03-27T18:10:32.067Z,10.07
2018-03-27T18:12:59.982Z,11.07
2018-03-27T18:15:27.850Z,7.87
2018-03-27T18:17:55.716Z,7.83
2018-03-27T18:20:24.970Z,10.10
2018-03-27T18:22:52.887Z,7.97
2018-03-27T18:25:20.639Z,9.90
2018-03-27T18:27:48.506Z,12.00
2018-03-27T18:30:16.370Z,10.50
2018-03-27T18:32:44.189Z,10.63
2018-03-27T18:35:11.999Z,12.60
2018-03-27T18:37:39.770Z,10.63
2018-03-27T18:40:07.532Z,13.07
2018-03-27T18:42:35.356Z,10.63
2018-03-27T18:45:03.262Z,10.10
2018-03-27T18:47:31.134Z,14.07
2018-03-27T18:49:58.942Z,8.37
2018-03-27T18:52:26.870Z,13.20
2018-03-27T18:54:55.442Z,11.23
2018-03-27T18:57:23.316Z,11.83
2018-03-27T18:59:51.186Z,10.80
2018-03-27T19:02:19.002Z,10.30
2018-03-27T19:04:46.851Z,13.03
2018-03-27T19:07:15.494Z,12.40
2018-03-27T19:09:43.360Z,13.63
2018-03-27T19:12:11.235Z,15.97
2018-03-27T19:14:39.098Z,11.30
2018-03-27T19:17:06.972Z,13.43
2018-03-27T19:19:34.827Z,13.33
2018-03-27T19:22:02.702Z,16.00
2018-03-27T19:24:30.562Z,11.83
2018-03-27T19:26:58.434Z,11.53
2018-03-27T19:29:26.299Z,14.20
2018-03-27T19:31:54.164Z,8.47
2018-03-27T19:34:21.993Z,11.63
2018-03-27T19:36:49.793Z,13.30
2018-03-27T19:39:17.661Z,13.20
2018-03-27T19:41:45.533Z,10.40
2018-03-27T19:44:13.360Z,12.53
2018-03-27T19:46:41.164Z,13.63
2018-03-27T19:49:09.025Z,11.90
2018-03-27T19:51:36.893Z,10.57
2018-03-27T19:54:04.663Z,11.60
2018-03-27T19:56:32.483Z,15.30
2018-03-27T19:59:00.307Z,8.80
2018-03-27T20:01:28.106Z,17.57
2018-03-27T20:03:55.918Z,10.40
2018-03-27T20:06:23.790Z,10.83
2018-03-27T20:08:51.555Z,14.97
2018-03-27T20:11:19.416Z,12.17
2018-03-27T20:13:47.284Z,16.10
2018-03-27T20:16:15.116Z,10.03
2018-03-27T20:18:42.913Z,14.87
2018-03-27T20:21:10.779Z,11.43
2018-03-27T20:23:38.550Z,15.60
2018-03-27T20:26:06.416Z,10.40
2018-03-27T20:28:34.370Z,12.07
2018-03-27T20:31:02.254Z,13.30
2018-03-27T20:33:30.118Z,13.70
2018-03-27T20:35:57.992Z,12.90
2018-03-27T20:38:25.847Z,12.33
2018-03-27T20:40:53.714Z,11.50
2018-03-27T20:43:21.537Z,12.57
2018-03-27T20:45:49.449Z,10.57
2018-03-27T20:48:17.326Z,10.80
2018-03-27T20:50:45.179Z,20.43
2018-03-27T20:53:13.062Z,13.50
2018-03-27T20:55:40.919Z,15.40
2018-03-27T20:58:08.781Z,11.67
2018-03-27T21:00:36.653Z,12.17
2018-03-27T21:03:04.519Z,10.67
2018-03-27T21:05:32.420Z,15.97
2018-03-27T21:08:00.249Z,12.90
2018-03-27T21:10:28.122Z,8.53
2018-03-27T21:12:55.982Z,15.30
2018-03-27T21:15:23.848Z,12.77
2018-03-27T21:17:51.712Z,11.20
2018-03-27T21:20:19.582Z,11.10
2018-03-27T21:22:47.454Z,9.63
2018-03-27T21:25:15.281Z,12.30
2018-03-27T21:27:43.187Z,16.47
2018-03-27T21:30:11.006Z,11.00
2018-03-27T21:32:38.912Z,11.40
2018-03-27T21:35:06.744Z,11.67
2018-03-27T21:37:35.426Z,7.70
2018-03-27T21:40:05.484Z,9.57
2018-03-27T21:42:33.357Z,10.00
2018-03-27T21:45:01.218Z,9.47
2018-03-27T21:47:29.088Z,9.10
2018-03-27T21:49:56.954Z,6.63
2018-03-27T21:52:24.726Z,10.13
2018-03-27T21:54:52.588Z,10.33
2018-03-27T21:57:20.351Z,7.10
2018-03-27T21:59:48.221Z,6.93
2018-03-27T22:02:16.080Z,11.40
2018-03-27T22:04:43.953Z,9.20
2018-03-27T22:07:11.813Z,7.73
2018-03-27T22:09:39.683Z,9.13
2018-03-27T22:12:07.549Z,11.33
2018-03-27T22:14:35.420Z,6.73
2018-03-27T22:17:03.289Z,8.77
2018-03-27T22:19:31.149Z,9.10
2018-03-27T22:21:59.016Z,10.23
2018-03-27T22:24:26.890Z,12.60
2018-03-27T22:26:54.710Z,10.90
2018-03-27T22:29:22.622Z,8.80
2018-03-27T22:31:50.220Z,7.40
2018-03-27T22:34:18.603Z,14.53
2018-03-27T22:36:46.220Z,7.10
2018-03-27T22:39:13.807Z,9.53
2018-03-27T22:41:42.203Z,10.73
2018-03-27T22:44:10.621Z,10.10
2018-03-27T22:46:38.191Z,11.20
2018-03-27T22:49:05.965Z,13.10
2018-03-27T22:51:33.568Z,9.83
2018-03-27T22:54:01.969Z,7.60
2018-03-27T22:56:29.560Z,10.30
2018-03-27T22:58:57.147Z,10.23
2018-03-27T23:01:24.768Z,9.33
2018-03-27T23:03:52.362Z,7.83
2018-03-27T23:06:19.957Z,7.67
2018-03-27T23:08:47.584Z,15.60
2018-03-27T23:11:15.944Z,7.93
2018-03-27T23:13:43.540Z,11.37
2018-03-27T23:16:11.938Z,11.33
2018-03-27T23:18:39.536Z,10.60
2018-03-27T23:21:07.125Z,8.53
2018-03-27T23:23:35.523Z,9.80
2018-03-27T23:26:03.884Z,10.33
2018-03-27T23:28:32.552Z,10.77
2018-03-27T23:31:00.171Z,11.27
2018-03-27T23:33:27.764Z,9.77
2018-03-27T23:35:55.397Z,9.73
2018-03-27T23:38:22.988Z,9.27
2018-03-27T23:40:50.602Z,10.77
2018-03-27T23:43:18.243Z,7.97
2018-03-27T23:45:46.599Z,17.13
2018-03-27T23:48:14.227Z,11.07
2018-03-27T23:50:41.816Z,8.97
2018-03-27T23:53:09.415Z,14.40
2018-03-27T23:55:37.805Z,12.97
2018-03-27T23:58:05.396Z,11.30
